Time;durP1;ratioP1;P1;durP2;ratioP2;P2;SDS_P1;SDS_P2;PMS_P1;PMS_P2;Temp;Humidity;BMP_temperature;BMP_pressure;BME280_temperature;BME280_humidity;BME280_pressure;Samples;Min_cycle;Max_cycle;Signal;HPM_P1;HPM_P2
2023/10/15 00:00:31;;;;;;;3.67;2.00;;;;;;;16.19;100.00;98166.16;4485167;31;20137;-80
2023/10/15 00:02:59;;;;;;;11.18;2.72;;;;;;;16.05;100.00;98165.19;4485173;32;20468;-81
2023/10/15 00:05:27;;;;;;;3.53;2.20;;;;;;;15.99;100.00;98175.69;4485242;32;20155;-80
2023/10/15 00:07:57;;;;;;;4.37;1.92;;;;;;;15.94;100.00;98173.59;4484934;31;20104;-80
2023/10/15 00:10:28;;;;;;;3.80;2.08;;;;;;;15.80;100.00;98191.12;4485276;31;20524;-80
2023/10/15 00:12:57;;;;;;;4.45;2.05;;;;;;;15.82;100.00;98201.50;4484915;31;20085;-80
2023/10/15 00:15:28;;;;;;;5.85;2.35;;;;;;;15.88;100.00;98219.25;4483616;31;20119;-80
2023/10/15 00:17:59;;;;;;;5.55;2.37;;;;;;;15.90;100.00;98222.53;4469321;32;20111;-80
2023/10/15 00:20:32;;;;;;;6.62;2.37;;;;;;;15.77;100.00;98226.63;4469311;32;20111;-80
2023/10/15 00:23:06;;;;;;;5.22;2.12;;;;;;;15.76;100.00;98232.06;4469339;32;20113;-80
2023/10/15 00:25:35;;;;;;;5.50;2.28;;;;;;;15.71;100.00;98264.31;4469479;32;20081;-80
2023/10/15 00:28:11;;;;;;;3.67;1.98;;;;;;;15.64;100.00;98265.22;4469435;32;20088;-81
2023/10/15 00:30:39;;;;;;;4.78;1.90;;;;;;;15.65;100.00;98269.50;4469319;32;20089;-80
2023/10/15 00:33:12;;;;;;;3.05;1.92;;;;;;;15.52;100.00;98249.84;4468992;32;20094;-80
2023/10/15 00:35:44;;;;;;;3.85;1.85;;;;;;;15.41;100.00;98242.38;4468987;32;20446;-79
2023/10/15 00:38:16;;;;;;;2.55;1.45;;;;;;;15.29;100.00;98234.09;4469043;32;20107;-79
2023/10/15 00:40:51;;;;;;;2.80;0.90;;;;;;;15.24;100.00;98247.00;4469114;32;20517;-79
2023/10/15 00:43:20;;;;;;;2.00;1.05;;;;;;;15.26;100.00;98255.53;4469052;32;20147;-78
2023/10/15 00:45:47;;;;;;;2.47;1.23;;;;;;;15.19;100.00;98260.72;4469193;32;20100;-78
2023/10/15 00:48:36;;;;;;;2.40;0.90;;;;;;;15.20;100.00;98258.91;4467847;32;20492;-78
2023/10/15 00:51:11;;;;;;;1.50;0.90;;;;;;;15.13;100.00;98258.00;4469028;32;20382;-79
2023/10/15 00:53:54;;;;;;;1.50;1.00;;;;;;;15.06;100.00;98245.53;4473585;32;20103;-78
2023/10/15 00:56:26;;;;;;;1.52;0.70;;;;;;;14.97;100.00;98251.84;4484707;31;20084;-78
2023/10/15 01:01:26;;;;;;;0.80;0.50;;;;;;;14.95;100.00;98263.59;4484648;31;20092;-79
2023/10/15 01:03:59;;;;;;;1.27;0.68;;;;;;;14.94;100.00;98273.31;4484688;31;20081;-78
2023/10/15 01:06:30;;;;;;;1.40;0.65;;;;;;;14.87;100.00;98256.56;4484587;31;20133;-78
2023/10/15 01:09:08;;;;;;;0.93;0.50;;;;;;;14.98;100.00;98263.22;4484588;31;20084;-78
2023/10/15 01:11:37;;;;;;;0.77;0.50;;;;;;;14.84;100.00;98272.75;4483752;31;20115;-79
2023/10/15 01:14:10;;;;;;;1.58;0.47;;;;;;;14.79;100.00;98259.25;4484598;31;20538;-79
2023/10/15 01:16:39;;;;;;;0.90;0.40;;;;;;;14.78;100.00;98255.00;4475178;31;20156;-78
2023/10/15 01:21:43;;;;;;;0.73;0.40;;;;;;;14.62;100.00;98240.91;4468702;32;20577;-78
2023/10/15 01:24:15;;;;;;;1.20;0.50;;;;;;;14.64;100.00;98233.66;4469058;32;20081;-79
2023/10/15 01:29:44;;;;;;;1.20;0.52;;;;;;;14.76;100.00;98249.06;4468851;32;20084;-79
2023/10/15 01:32:22;;;;;;;0.60;0.52;;;;;;;14.62;100.00;98259.38;4468882;32;20462;-78
2023/10/15 01:35:00;;;;;;;1.02;0.40;;;;;;;14.58;100.00;98265.97;4468786;32;20107;-79
2023/10/15 01:37:30;;;;;;;1.33;0.80;;;;;;;14.53;100.00;98261.22;4468536;32;20122;-80
2023/10/15 01:42:42;;;;;;;3.00;0.70;;;;;;;14.34;100.00;98272.22;4468478;32;20165;-80
2023/10/15 01:53:05;;;;;;;2.55;0.73;;;;;;;14.39;100.00;98296.22;4469960;32;20553;-82
2023/10/15 01:55:52;;;;;;;3.47;0.80;;;;;;;14.47;100.00;98293.53;4483851;32;20100;-82
2023/10/15 01:58:30;;;;;;;1.15;0.70;;;;;;;14.41;100.00;98293.41;4483932;32;20167;-81
2023/10/15 02:01:09;;;;;;;1.70;1.10;;;;;;;14.32;100.00;98288.19;4484054;31;20118;-82
2023/10/15 02:03:41;;;;;;;2.37;0.73;;;;;;;14.27;100.00;98284.44;4482802;32;20106;-83
2023/10/15 02:06:09;;;;;;;3.65;0.88;;;;;;;14.35;100.00;98290.50;4483643;32;20114;-82
2023/10/15 02:08:39;;;;;;;2.28;0.82;;;;;;;14.25;100.00;98300.41;4483612;31;20096;-83
2023/10/15 02:11:16;;;;;;;0.90;0.75;;;;;;;14.20;100.00;98295.66;4483751;31;20134;-83
2023/10/15 02:13:45;;;;;;;2.30;0.90;;;;;;;14.21;100.00;98283.31;4483458;31;20085;-83
2023/10/15 02:16:18;;;;;;;1.20;0.80;;;;;;;14.11;100.00;98272.16;4476795;31;20449;-84
2023/10/15 02:18:46;;;;;;;2.95;1.30;;;;;;;14.17;100.00;98267.03;4467962;32;20141;-83
2023/10/15 02:21:16;;;;;;;1.37;1.20;;;;;;;14.16;100.00;98283.00;4467826;32;20084;-83
2023/10/15 02:23:49;;;;;;;2.45;1.00;;;;;;;14.07;100.00;98279.59;4469016;32;20198;-83
2023/10/15 02:26:30;;;;;;;1.60;1.02;;;;;;;14.14;100.00;98282.34;4470478;32;20111;-83
2023/10/15 02:29:06;;;;;;;1.98;0.93;;;;;;;14.05;100.00;98294.75;4470235;32;20112;-84
2023/10/15 02:31:46;;;;;;;1.37;0.90;;;;;;;14.12;100.00;98295.69;4470025;32;20127;-84
2023/10/15 02:34:16;;;;;;;1.92;1.17;;;;;;;14.04;100.00;98302.81;4469723;32;20084;-84
2023/10/15 02:36:46;;;;;;;1.83;1.00;;;;;;;14.08;100.00;98306.72;4469961;32;20096;-84
2023/10/15 02:39:13;;;;;;;2.92;1.10;;;;;;;14.13;100.00;98312.34;4469762;32;20126;-85
2023/10/15 02:41:46;;;;;;;2.58;0.88;;;;;;;14.05;100.00;98309.72;4470107;32;20751;-85
2023/10/15 02:44:13;;;;;;;1.17;0.80;;;;;;;14.02;100.00;98321.44;4470012;32;20088;-85
2023/10/15 02:46:47;;;;;;;1.45;1.00;;;;;;;14.04;100.00;98313.34;4470123;32;20177;-84
2023/10/15 02:49:15;;;;;;;1.60;0.77;;;;;;;14.05;100.00;98317.63;4469876;32;20093;-85
2023/10/15 02:51:47;;;;;;;1.20;1.00;;;;;;;14.04;100.00;98321.25;4470150;32;20105;-84
2023/10/15 02:54:18;;;;;;;1.08;0.90;;;;;;;14.09;100.00;98330.28;4479005;32;20088;-85
2023/10/15 02:56:46;;;;;;;1.02;0.80;;;;;;;14.18;100.00;98338.97;4485777;31;20482;-84
2023/10/15 02:59:16;;;;;;;1.87;0.80;;;;;;;14.16;100.00;98339.13;4485522;31;20097;-84
2023/10/15 03:01:46;;;;;;;1.35;1.00;;;;;;;13.93;100.00;98331.16;4485418;31;20565;-85
2023/10/15 03:04:17;;;;;;;1.48;0.90;;;;;;;13.95;100.00;98342.34;4485471;31;20088;-84
2023/10/15 03:06:48;;;;;;;2.80;1.23;;;;;;;13.99;100.00;98333.13;4485568;31;20083;-84
2023/10/15 03:09:18;;;;;;;2.45;1.50;;;;;;;13.94;100.00;98326.72;4485297;31;20112;-85
2023/10/15 03:11:50;;;;;;;1.37;1.27;;;;;;;13.91;100.00;98319.16;4485539;32;20498;-85
2023/10/15 03:14:17;;;;;;;1.73;1.35;;;;;;;13.87;100.00;98309.94;4485414;31;20502;-84
2023/10/15 03:16:44;;;;;;;1.37;1.23;;;;;;;13.81;100.00;98314.09;4475260;31;20446;-85
2023/10/15 03:19:18;;;;;;;2.80;1.30;;;;;;;13.84;100.00;98308.47;4469546;32;20501;-84
2023/10/15 03:21:47;;;;;;;2.53;1.65;;;;;;;13.80;100.00;98307.97;4469779;32;20102;-84
2023/10/15 03:24:17;;;;;;;4.35;1.48;;;;;;;13.75;100.00;98306.88;4469743;32;20093;-84
2023/10/15 03:26:47;;;;;;;3.80;1.70;;;;;;;13.75;100.00;98315.56;4469634;32;20157;-84
2023/10/15 03:29:15;;;;;;;6.28;1.80;;;;;;;13.81;100.00;98308.81;4469488;32;20100;-84
2023/10/15 03:31:48;;;;;;;2.75;1.67;;;;;;;13.75;100.00;98309.50;4469618;32;20465;-84
2023/10/15 03:34:18;;;;;;;3.25;1.92;;;;;;;13.67;100.00;98326.13;4468912;32;20088;-85
2023/10/15 03:36:57;;;;;;;2.08;1.50;;;;;;;13.69;100.00;98321.53;4469565;32;20868;-84
2023/10/15 03:39:27;;;;;;;2.28;1.62;;;;;;;13.68;100.00;98319.06;4469561;32;20609;-84
2023/10/15 03:42:09;;;;;;;2.87;1.58;;;;;;;13.58;100.00;98308.69;4469757;32;20119;-84
2023/10/15 03:44:47;;;;;;;2.65;1.60;;;;;;;13.39;100.00;98312.53;4469528;32;20607;-84
2023/10/15 03:47:16;;;;;;;3.78;2.03;;;;;;;13.53;100.00;98319.72;4469502;32;20431;-84
2023/10/15 03:49:46;;;;;;;3.42;1.50;;;;;;;13.43;100.00;98319.06;4469258;32;20109;-84
2023/10/15 03:52:14;;;;;;;1.55;1.37;;;;;;;13.31;100.00;98319.41;4469382;32;20096;-84
2023/10/15 03:54:42;;;;;;;5.20;2.10;;;;;;;13.29;100.00;98320.53;4481290;32;20123;-83
2023/10/15 03:57:11;;;;;;;3.17;1.73;;;;;;;13.20;100.00;98311.84;4485087;31;20092;-82
2023/10/15 03:59:44;;;;;;;3.50;1.83;;;;;;;13.16;100.00;98307.06;4485000;31;20119;-82
2023/10/15 04:02:22;;;;;;;3.23;1.50;;;;;;;13.06;100.00;98301.97;4484993;31;20084;-81
2023/10/15 04:05:11;;;;;;;3.50;2.10;;;;;;;13.07;100.00;98303.63;4484984;31;20081;-82
2023/10/15 04:07:48;;;;;;;7.97;2.00;;;;;;;13.13;100.00;98300.34;4485094;31;20133;-82
2023/10/15 04:10:23;;;;;;;4.70;1.80;;;;;;;13.22;100.00;98299.34;4485010;31;20437;-81
2023/10/15 04:12:52;;;;;;;6.20;2.20;;;;;;;12.91;100.00;98297.41;4484896;32;20153;-81
2023/10/15 04:15:21;;;;;;;5.85;2.00;;;;;;;12.99;100.00;98308.87;4483919;32;20088;-81
2023/10/15 04:17:51;;;;;;;2.50;1.98;;;;;;;13.01;100.00;98306.94;4469614;32;20072;-80
2023/10/15 04:20:34;;;;;;;3.80;1.60;;;;;;;12.91;100.00;98312.31;4469193;32;20458;-81
2023/10/15 04:23:02;;;;;;;3.50;1.75;;;;;;;12.90;100.00;98327.28;4469284;32;20115;-80
2023/10/15 04:25:32;;;;;;;4.97;1.70;;;;;;;12.94;100.00;98323.34;4469385;32;20161;-81
2023/10/15 04:28:11;;;;;;;4.35;1.55;;;;;;;12.83;100.00;98331.53;4469310;32;20088;-80
2023/10/15 04:30:39;;;;;;;4.72;1.60;;;;;;;12.59;100.00;98343.66;4469219;32;20096;-80
2023/10/15 04:33:10;;;;;;;2.80;1.65;;;;;;;12.57;100.00;98321.97;4468965;32;20101;-80
2023/10/15 04:35:38;;;;;;;4.97;1.60;;;;;;;12.47;100.00;98326.53;4469360;32;20172;-80
2023/10/15 04:38:08;;;;;;;6.78;1.80;;;;;;;12.50;100.00;98325.41;4469235;32;20084;-80
2023/10/15 04:41:00;;;;;;;2.55;1.55;;;;;;;12.45;100.00;98312.75;4468941;32;20097;-79
2023/10/15 04:43:28;;;;;;;5.10;1.98;;;;;;;12.34;100.00;98306.00;4468892;32;20101;-80
2023/10/15 04:46:02;;;;;;;3.87;1.58;;;;;;;12.18;100.00;98311.19;4468271;32;20093;-80
2023/10/15 04:48:32;;;;;;;7.55;1.73;;;;;;;12.20;100.00;98324.97;4469124;32;20443;-80
2023/10/15 04:51:12;;;;;;;4.40;1.73;;;;;;;12.19;100.00;98324.16;4469169;32;20120;-80
2023/10/15 04:53:50;;;;;;;3.00;1.60;;;;;;;12.19;100.00;98339.91;4474333;32;20115;-80
2023/10/15 04:56:18;;;;;;;3.90;1.75;;;;;;;12.17;100.00;98348.94;4484545;31;20185;-80
2023/10/15 04:58:46;;;;;;;3.22;1.30;;;;;;;12.19;100.00;98355.69;4484686;32;20514;-80
2023/10/15 05:01:14;;;;;;;4.72;1.98;;;;;;;12.11;100.00;98371.38;4484650;31;20172;-80
2023/10/15 05:03:45;;;;;;;2.67;1.40;;;;;;;12.21;100.00;98385.22;4484726;32;20175;-80
2023/10/15 05:06:13;;;;;;;1.48;1.08;;;;;;;12.06;100.00;98387.59;4484478;31;20482;-80
2023/10/15 05:08:40;;;;;;;2.17;1.40;;;;;;;12.08;100.00;98387.44;4484575;31;20104;-80
2023/10/15 05:11:08;;;;;;;4.75;1.90;;;;;;;11.93;100.00;98375.88;4484464;31;20112;-79
2023/10/15 05:13:36;;;;;;;4.85;1.77;;;;;;;11.98;100.00;98378.88;4484495;31;20134;-80
2023/10/15 05:16:04;;;;;;;4.78;1.60;;;;;;;12.01;100.00;98373.31;4478747;31;20171;-80
2023/10/15 05:18:32;;;;;;;8.32;1.50;;;;;;;11.93;100.00;98365.38;4468863;32;20507;-80
2023/10/15 05:21:03;;;;;;;4.25;1.58;;;;;;;11.81;100.00;98368.25;4468765;32;20105;-80
2023/10/15 05:23:30;;;;;;;6.53;1.92;;;;;;;11.84;100.00;98357.44;4468851;32;20531;-80
2023/10/15 05:25:57;;;;;;;6.10;1.40;;;;;;;11.84;100.00;98367.94;4468821;32;20115;-80
2023/10/15 05:28:26;;;;;;;5.40;3.22;;;;;;;11.68;100.00;98371.28;4468874;32;20119;-79
2023/10/15 05:30:54;;;;;;;3.85;1.60;;;;;;;11.65;100.00;98389.12;4468725;32;20090;-80
2023/10/15 05:33:22;;;;;;;2.83;1.25;;;;;;;11.62;100.00;98398.13;4468910;32;20089;-79
2023/10/15 05:35:49;;;;;;;5.18;1.62;;;;;;;11.64;100.00;98392.72;4468256;32;20089;-79
2023/10/15 05:38:19;;;;;;;9.07;1.75;;;;;;;11.72;100.00;98390.97;4467409;32;20111;-79
2023/10/15 05:40:46;;;;;;;5.20;1.42;;;;;;;11.70;100.00;98403.44;4468362;32;20439;-80
2023/10/15 05:43:14;;;;;;;2.35;1.23;;;;;;;11.71;100.00;98405.06;4468615;32;20447;-79
2023/10/15 05:45:45;;;;;;;5.25;1.75;;;;;;;11.72;100.00;98400.66;4468290;32;20535;-79
2023/10/15 05:48:12;;;;;;;5.22;2.10;;;;;;;11.61;100.00;98406.16;4468645;32;20588;-80
2023/10/15 05:50:41;;;;;;;6.07;1.73;;;;;;;11.71;100.00;98409.50;4468455;32;20093;-79
2023/10/15 05:53:08;;;;;;;5.05;1.75;;;;;;;11.74;100.00;98430.19;4470467;32;20119;-79
2023/10/15 05:55:35;;;;;;;4.05;1.62;;;;;;;11.64;100.00;98448.66;4483849;31;20589;-80
2023/10/15 05:58:05;;;;;;;5.90;1.80;;;;;;;11.66;100.00;98453.75;4485272;31;20100;-80
2023/10/15 06:00:39;;;;;;;7.12;1.60;;;;;;;11.65;100.00;98452.91;4486005;31;20904;-79
2023/10/15 06:03:08;;;;;;;9.45;1.80;;;;;;;11.64;100.00;98446.03;4485931;31;20089;-79
2023/10/15 06:05:36;;;;;;;4.78;1.75;;;;;;;11.59;100.00;98458.78;4485917;31;20119;-80
2023/10/15 06:08:04;;;;;;;9.98;1.55;;;;;;;11.59;100.00;98457.97;4485884;31;20113;-80
2023/10/15 06:10:32;;;;;;;5.28;1.70;;;;;;;11.56;100.00;98464.31;4485789;31;20135;-80
2023/10/15 06:13:02;;;;;;;6.68;2.22;;;;;;;11.57;100.00;98459.88;4485683;31;20153;-80
2023/10/15 06:15:29;;;;;;;5.00;1.62;;;;;;;11.58;100.00;98461.56;4483903;31;20100;-82
2023/10/15 06:17:57;;;;;;;9.65;1.42;;;;;;;11.68;100.00;98451.81;4470089;32;20560;-81
2023/10/15 06:20:25;;;;;;;3.85;1.37;;;;;;;11.58;100.00;98448.44;4470068;32;20111;-81
2023/10/15 06:22:59;;;;;;;3.30;1.48;;;;;;;11.58;100.00;98446.63;4470059;32;20165;-81
2023/10/15 06:25:28;;;;;;;2.92;1.40;;;;;;;11.49;100.00;98447.53;4469972;32;20096;-80
2023/10/15 06:27:56;;;;;;;6.68;1.62;;;;;;;11.26;100.00;98439.31;4470045;32;20120;-80
2023/10/15 06:30:23;;;;;;;6.45;1.60;;;;;;;11.22;100.00;98435.31;4470050;32;20150;-80
2023/10/15 06:32:52;;;;;;;3.87;1.73;;;;;;;11.18;100.00;98435.62;4470023;32;20434;-80
2023/10/15 06:35:23;;;;;;;4.03;1.62;;;;;;;11.23;100.00;98447.47;4469792;32;20126;-80
2023/10/15 06:37:55;;;;;;;6.87;1.80;;;;;;;11.27;100.00;98446.19;4469953;32;20084;-80
2023/10/15 06:40:25;;;;;;;10.45;2.12;;;;;;;11.27;100.00;98451.44;4470064;32;20150;-80
2023/10/15 06:42:59;;;;;;;6.47;1.70;;;;;;;11.31;100.00;98447.53;4469884;32;20171;-80
2023/10/15 06:45:28;;;;;;;5.82;1.62;;;;;;;11.24;100.00;98457.81;4469969;32;20185;-81
2023/10/15 06:47:56;;;;;;;3.00;1.27;;;;;;;11.27;100.00;98459.31;4469714;32;20254;-80
2023/10/15 06:50:23;;;;;;;6.65;1.85;;;;;;;11.24;100.00;98447.31;4470023;32;20160;-80
2023/10/15 06:52:54;;;;;;;6.15;1.60;;;;;;;11.15;100.00;98422.81;4470088;32;20092;-80
2023/10/15 06:55:24;;;;;;;11.43;2.03;;;;;;;11.13;100.00;98430.00;4485384;31;20454;-80
2023/10/15 06:57:51;;;;;;;4.87;1.90;;;;;;;11.25;100.00;98414.88;4485389;32;20105;-80
2023/10/15 07:00:23;;;;;;;7.03;1.80;;;;;;;11.04;100.00;98417.78;4485812;31;20096;-80
2023/10/15 07:02:53;;;;;;;4.45;2.08;;;;;;;11.24;100.00;98420.28;4485521;31;20084;-80
2023/10/15 07:05:23;;;;;;;2.72;1.30;;;;;;;11.27;100.00;98433.09;4485451;31;20092;-80
2023/10/15 07:07:52;;;;;;;6.97;1.73;;;;;;;11.36;100.00;98417.25;4485633;31;20145;-80
2023/10/15 07:10:21;;;;;;;5.12;1.62;;;;;;;11.33;100.00;98420.19;4484920;31;20096;-80
2023/10/15 07:12:53;;;;;;;6.40;1.65;;;;;;;11.44;100.00;98424.38;4485266;31;20101;-81
2023/10/15 07:15:20;;;;;;;4.28;1.75;;;;;;;11.51;100.00;98456.09;4484335;31;20091;-80
2023/10/15 07:17:50;;;;;;;8.45;2.05;;;;;;;11.53;100.00;98480.38;4469820;32;20127;-80
2023/10/15 07:20:21;;;;;;;7.05;1.58;;;;;;;11.58;100.00;98493.03;4469706;32;20101;-81
2023/10/15 07:22:49;;;;;;;5.12;1.42;;;;;;;11.60;100.00;98506.84;4469518;32;20111;-81
2023/10/15 07:25:18;;;;;;;4.20;1.58;;;;;;;11.45;100.00;98515.22;4469593;32;20131;-81
2023/10/15 07:27:48;;;;;;;4.50;1.85;;;;;;;11.50;100.00;98536.56;4469503;32;20081;-81
2023/10/15 07:30:21;;;;;;;7.68;1.60;;;;;;;11.59;100.00;98526.16;4469588;32;20085;-81
2023/10/15 07:32:58;;;;;;;3.10;1.30;;;;;;;11.67;100.00;98529.69;4469503;32;20111;-80
2023/10/15 07:35:28;;;;;;;4.12;1.70;;;;;;;11.65;100.00;98530.81;4469186;32;20088;-81
2023/10/15 07:37:57;;;;;;;8.48;2.03;;;;;;;11.48;100.00;98535.09;4469368;32;20101;-80
2023/10/15 07:40:26;;;;;;;10.38;1.62;;;;;;;11.53;100.00;98533.66;4469405;32;20094;-80
2023/10/15 07:42:58;;;;;;;4.93;1.40;;;;;;;11.50;100.00;98518.22;4469343;32;20153;-80
2023/10/15 07:45:29;;;;;;;6.15;1.40;;;;;;;11.56;100.00;98508.09;4469885;32;20089;-80
2023/10/15 07:48:03;;;;;;;5.22;1.67;;;;;;;11.68;100.00;98520.84;4469463;32;20136;-80
2023/10/15 07:50:34;;;;;;;5.72;1.52;;;;;;;11.79;100.00;98521.59;4468268;32;20104;-81
2023/10/15 07:53:03;;;;;;;2.75;1.33;;;;;;;11.78;100.00;98509.44;4470725;32;20115;-80
2023/10/15 07:55:32;;;;;;;5.47;1.77;;;;;;;11.90;100.00;98514.31;4484968;31;20563;-80
2023/10/15 07:57:59;;;;;;;5.20;1.42;;;;;;;12.04;100.00;98509.53;4484891;31;20183;-80
2023/10/15 08:00:29;;;;;;;3.58;1.35;;;;;;;12.05;100.00;98505.91;4485094;31;20807;-80
2023/10/15 08:02:57;;;;;;;7.62;1.70;;;;;;;12.22;100.00;98505.06;4485027;31;20434;-80
2023/10/15 08:05:34;;;;;;;6.32;1.25;;;;;;;12.14;100.00;98488.41;4485146;31;20081;-80
2023/10/15 08:08:04;;;;;;;4.28;1.55;;;;;;;12.20;100.00;98488.62;4484909;31;20084;-79
2023/10/15 08:10:34;;;;;;;6.97;1.35;;;;;;;12.19;100.00;98494.84;4484998;31;20151;-80
2023/10/15 08:13:04;;;;;;;6.20;1.50;;;;;;;12.29;100.00;98502.62;4485067;31;20092;-79
2023/10/15 08:15:38;;;;;;;6.72;1.30;;;;;;;12.38;100.00;98501.72;4482571;31;20127;-80
2023/10/15 08:18:06;;;;;;;;;;;;;;;12.33;100.00;98509.22;4469624;32;20089;-80
2023/10/15 08:20:34;;;;;;;6.55;1.60;;;;;;;12.38;100.00;98514.00;4469196;32;19981;-80
2023/10/15 08:23:01;;;;;;;5.90;1.80;;;;;;;12.40;100.00;98504.19;4469243;32;20087;-80
2023/10/15 08:25:31;;;;;;;5.35;1.62;;;;;;;12.40;100.00;98499.75;4469228;32;20093;-80
2023/10/15 08:28:01;;;;;;;4.75;1.73;;;;;;;12.37;100.00;98494.81;4469191;32;20115;-80
2023/10/15 08:30:30;;;;;;;6.47;2.08;;;;;;;12.28;100.00;98498.38;4469130;32;20168;-79
2023/10/15 08:32:58;;;;;;;5.90;1.50;;;;;;;12.18;100.00;98505.53;4469130;32;20100;-80
2023/10/15 08:35:27;;;;;;;4.22;1.87;;;;;;;12.32;100.00;98494.44;4468926;32;20108;-80
2023/10/15 08:37:55;;;;;;;3.87;1.50;;;;;;;12.33;100.00;98498.72;4469009;32;20180;-80
2023/10/15 08:40:22;;;;;;;4.15;1.77;;;;;;;12.46;100.00;98514.06;4468900;32;20119;-80
2023/10/15 08:43:20;;;;;;;6.35;1.52;;;;;;;12.43;100.00;98515.19;4469150;32;20164;-80
2023/10/15 08:45:48;;;;;;;5.05;1.25;;;;;;;12.48;100.00;98517.38;4467923;32;20104;-80
2023/10/15 08:48:16;;;;;;;5.70;1.60;;;;;;;12.45;100.00;98517.66;4469225;32;20177;-80
2023/10/15 08:50:45;;;;;;;3.53;1.65;;;;;;;12.42;100.00;98517.97;4467697;32;20491;-80
2023/10/15 08:53:15;;;;;;;6.20;1.65;;;;;;;12.44;100.00;98521.28;4471783;32;20091;-79
2023/10/15 08:55:43;;;;;;;6.93;1.80;;;;;;;12.61;100.00;98524.81;4484411;31;20068;-80
2023/10/15 08:58:10;;;;;;;5.12;1.67;;;;;;;12.51;100.00;98524.94;4483449;32;20118;-79
2023/10/15 09:00:39;;;;;;;8.95;1.73;;;;;;;12.57;100.00;98515.59;4484562;32;21022;-80
2023/10/15 09:03:06;;;;;;;6.12;1.55;;;;;;;12.61;100.00;98509.03;4484662;31;20502;-79
2023/10/15 09:05:37;;;;;;;9.70;1.70;;;;;;;12.57;100.00;98500.66;4484564;31;20587;-79
2023/10/15 09:08:08;;;;;;;6.12;1.83;;;;;;;12.64;100.00;98494.78;4484490;31;20153;-79
2023/10/15 09:10:40;;;;;;;11.98;1.50;;;;;;;12.50;100.00;98498.81;4484514;31;20145;-79
2023/10/15 09:13:18;;;;;;;5.03;1.10;;;;;;;12.65;100.00;98496.44;4484656;31;20084;-79
2023/10/15 09:15:48;;;;;;;8.73;2.00;;;;;;;12.72;100.00;98494.81;4480703;31;20093;-79
2023/10/15 09:18:16;;;;;;;5.60;1.40;;;;;;;12.75;100.00;98491.87;4468668;32;20754;-79
2023/10/15 09:20:52;;;;;;;5.62;1.70;;;;;;;12.72;100.00;98500.09;4468793;32;20093;-79
2023/10/15 09:23:23;;;;;;;3.22;1.60;;;;;;;12.89;100.00;98511.47;4468938;32;20096;-79
2023/10/15 09:25:55;;;;;;;5.30;1.80;;;;;;;13.00;100.00;98519.06;4469001;32;20103;-79
2023/10/15 09:28:27;;;;;;;4.40;1.70;;;;;;;13.02;100.00;98524.19;4468782;32;20118;-80
2023/10/15 09:31:09;;;;;;;5.93;1.40;;;;;;;13.25;100.00;98516.53;4468703;32;20110;-79
2023/10/15 09:33:38;;;;;;;6.68;1.40;;;;;;;13.25;99.29;98514.72;4468342;32;20443;-79
2023/10/15 09:36:06;;;;;;;6.90;2.00;;;;;;;13.27;98.88;98507.47;4468329;32;20119;-79
2023/10/15 09:38:37;;;;;;;8.63;1.70;;;;;;;13.19;97.50;98501.41;4468527;32;20110;-79
2023/10/15 09:41:06;;;;;;;6.57;1.50;;;;;;;12.88;97.56;98508.00;4468480;32;20112;-79
2023/10/15 09:43:36;;;;;;;7.20;1.50;;;;;;;12.88;97.03;98508.00;4468590;32;20100;-79
2023/10/15 09:46:06;;;;;;;5.12;1.35;;;;;;;12.93;96.48;98513.63;4468427;32;20115;-79
2023/10/15 09:48:36;;;;;;;5.37;1.65;;;;;;;12.90;96.66;98521.00;4468278;32;20088;-79
2023/10/15 09:51:05;;;;;;;4.00;1.40;;;;;;;13.00;95.91;98531.41;4468579;32;20168;-79
2023/10/15 09:53:34;;;;;;;5.12;1.73;;;;;;;13.00;95.46;98537.47;4472960;32;20108;-79
2023/10/15 09:56:07;;;;;;;6.45;1.73;;;;;;;12.87;95.57;98532.69;4483939;31;20097;-79
2023/10/15 09:58:35;;;;;;;7.93;1.48;;;;;;;12.80;93.02;98547.41;4482913;32;20119;-79
2023/10/15 10:01:28;;;;;;;2.87;1.48;;;;;;;12.89;94.67;98545.66;4483983;31;20104;-79
2023/10/15 10:04:19;;;;;;;4.43;1.37;;;;;;;13.01;93.35;98540.97;4479818;32;20126;-80
2023/10/15 10:07:05;;;;;;;6.82;2.25;;;;;;;12.95;93.46;98542.41;4482659;32;20111;-79
2023/10/15 10:10:06;;;;;;;3.50;1.50;;;;;;;13.08;92.88;98536.69;4484032;31;20575;-79
2023/10/15 10:12:53;;;;;;;6.32;1.92;;;;;;;13.11;91.50;98544.25;4483877;31;20113;-79
2023/10/15 10:15:28;;;;;;;4.87;1.73;;;;;;;12.93;92.29;98536.50;4482595;31;20085;-79
2023/10/15 10:17:56;;;;;;;5.35;2.25;;;;;;;12.91;91.26;98546.31;4468067;32;20156;-79
2023/10/15 10:20:32;;;;;;;7.95;1.67;;;;;;;12.98;88.41;98549.16;4466849;32;20092;-79
2023/10/15 10:23:05;;;;;;;5.55;1.75;;;;;;;13.00;90.76;98547.19;4467922;32;20077;-79
2023/10/15 10:25:48;;;;;;;4.93;1.30;;;;;;;12.99;91.14;98542.91;4466888;32;20101;-79
2023/10/15 10:28:20;;;;;;;6.37;1.50;;;;;;;13.03;90.61;98547.69;4467813;32;20111;-79
2023/10/15 10:30:59;;;;;;;5.50;1.52;;;;;;;13.18;91.81;98545.28;4467807;32;20145;-79
2023/10/15 10:33:40;;;;;;;6.07;1.50;;;;;;;13.24;88.55;98542.00;4467838;32;20142;-79
2023/10/15 10:36:12;;;;;;;2.60;1.75;;;;;;;13.25;87.75;98548.13;4467694;32;20597;-79
2023/10/15 10:38:41;;;;;;;5.20;1.50;;;;;;;13.21;88.71;98550.22;4467757;32;20148;-79
2023/10/15 10:41:13;;;;;;;3.00;1.40;;;;;;;13.19;87.89;98546.94;4467689;32;20081;-79
2023/10/15 10:43:54;;;;;;;4.18;1.55;;;;;;;13.43;89.45;98548.00;4468106;32;20152;-79
2023/10/15 10:46:43;;;;;;;5.68;1.60;;;;;;;13.60;89.20;98544.44;4470077;32;20119;-79
2023/10/15 10:49:16;;;;;;;4.45;1.52;;;;;;;13.55;87.70;98546.75;4469799;32;20145;-79
2023/10/15 10:52:17;;;;;;;4.28;1.62;;;;;;;13.28;87.67;98545.97;4469949;32;20089;-79
2023/10/15 10:54:45;;;;;;;4.10;1.58;;;;;;;13.30;88.02;98543.19;4482562;32;20088;-79
2023/10/15 10:57:18;;;;;;;6.25;2.95;;;;;;;13.17;87.95;98554.16;4485520;32;20254;-78
2023/10/15 10:59:47;;;;;;;7.45;1.75;;;;;;;13.42;88.64;98554.28;4485362;31;20148;-79
2023/10/15 11:02:15;;;;;;;3.62;1.50;;;;;;;13.28;86.82;98548.59;4485391;31;20092;-79
2023/10/15 11:04:43;;;;;;;7.22;2.08;;;;;;;13.37;86.90;98546.00;4485460;31;20438;-79
2023/10/15 11:07:13;;;;;;;6.62;1.90;;;;;;;13.56;85.93;98550.19;4485660;31;20510;-79
2023/10/15 11:09:42;;;;;;;11.95;1.70;;;;;;;13.53;86.80;98563.66;4485434;31;20115;-79
2023/10/15 11:12:11;;;;;;;4.70;1.87;;;;;;;13.56;85.66;98558.88;4485625;31;20544;-79
2023/10/15 11:14:40;;;;;;;3.60;1.50;;;;;;;13.47;85.37;98544.91;4485312;31;20119;-79
2023/10/15 11:17:08;;;;;;;5.57;1.73;;;;;;;13.73;84.54;98551.03;4471544;32;20116;-79
2023/10/15 11:19:37;;;;;;;5.93;1.48;;;;;;;13.76;83.79;98548.06;4469677;32;20097;-79
2023/10/15 11:22:05;;;;;;;6.62;1.85;;;;;;;13.68;82.81;98540.16;4469723;32;20494;-79
2023/10/15 11:24:33;;;;;;;2.53;1.55;;;;;;;13.75;83.55;98535.91;4469831;32;20127;-79
2023/10/15 11:27:01;;;;;;;6.35;2.37;;;;;;;13.83;85.31;98546.44;4469629;32;20478;-79
2023/10/15 11:29:28;;;;;;;4.72;1.83;;;;;;;13.74;85.29;98550.06;4468551;32;20096;-79
2023/10/15 11:31:59;;;;;;;4.53;1.55;;;;;;;13.89;86.27;98553.69;4469619;32;20077;-79
2023/10/15 11:34:28;;;;;;;4.35;1.77;;;;;;;13.82;83.57;98550.03;4469566;32;20101;-79
2023/10/15 11:36:57;;;;;;;3.85;1.42;;;;;;;13.90;82.89;98549.22;4469693;32;20168;-79
2023/10/15 11:39:38;;;;;;;5.62;1.65;;;;;;;14.17;83.42;98550.72;4469571;32;20141;-79
2023/10/15 11:42:07;;;;;;;4.25;1.52;;;;;;;14.16;82.12;98551.72;4469586;32;20110;-79
2023/10/15 11:44:42;;;;;;;7.60;1.85;;;;;;;14.01;82.54;98548.91;4469758;32;20120;-79
2023/10/15 11:47:15;;;;;;;5.37;1.92;;;;;;;14.04;81.79;98550.41;4469749;32;20166;-79
2023/10/15 11:49:43;;;;;;;3.50;1.47;;;;;;;14.10;82.18;98555.00;4469846;32;20720;-79
2023/10/15 11:52:18;;;;;;;6.35;1.58;;;;;;;14.04;80.27;98545.13;4469486;32;20146;-79
2023/10/15 11:54:54;;;;;;;4.72;1.67;;;;;;;13.80;79.33;98541.50;4481596;32;20468;-79
2023/10/15 11:57:26;;;;;;;3.70;1.50;;;;;;;13.83;78.43;98538.53;4485224;31;20147;-79
2023/10/15 11:59:53;;;;;;;5.45;1.50;;;;;;;13.69;81.36;98542.63;4484763;31;20117;-79
2023/10/15 12:02:25;;;;;;;5.93;1.12;;;;;;;13.63;80.58;98532.75;4485112;31;20106;-78
2023/10/15 12:04:56;;;;;;;3.40;1.60;;;;;;;13.64;79.99;98531.75;4485265;31;20135;-78